createdAt,value
2022-10-09T00:00:56.668Z,99.30
2022-10-09T00:04:29.845Z,97.60
2022-10-09T00:08:00.962Z,98.00
2022-10-09T00:11:35.003Z,97.10
2022-10-09T00:15:06.081Z,98.10
2022-10-09T00:18:38.624Z,97.60
2022-10-09T00:22:11.879Z,97.60
2022-10-09T00:25:43.908Z,98.00
2022-10-09T00:29:14.937Z,98.20
2022-10-09T00:32:46.001Z,99.20
2022-10-09T00:36:18.487Z,99.00
2022-10-09T00:39:49.645Z,98.00
2022-10-09T00:44:09.661Z,97.60
2022-10-09T00:48:01.417Z,98.10
2022-10-09T00:51:34.754Z,98.80
2022-10-09T00:55:08.582Z,99.50
2022-10-09T00:58:40.250Z,99.50
2022-10-09T01:02:12.224Z,98.70
2022-10-09T01:06:04.119Z,99.30
2022-10-09T01:22:07.991Z,99.90
2022-10-09T01:26:21.956Z,97.60
2022-10-09T01:30:01.068Z,99.90
2022-10-09T01:33:33.613Z,99.70
2022-10-09T01:37:06.133Z,99.10
2022-10-09T01:40:38.798Z,99.50
2022-10-09T01:44:09.313Z,98.70
2022-10-09T01:47:51.106Z,98.60
2022-10-09T01:51:19.072Z,98.60
2022-10-09T01:55:21.899Z,99.90
2022-10-09T02:02:54.795Z,99.90
2022-10-09T02:06:29.642Z,99.50
2022-10-09T02:10:01.729Z,99.80
2022-10-09T02:13:34.794Z,99.20
2022-10-09T02:35:45.387Z,98.90
2022-10-09T02:39:16.107Z,98.30
2022-10-09T02:42:47.432Z,99.30
2022-10-09T02:46:19.490Z,99.10
2022-10-09T02:49:50.325Z,99.90
2022-10-09T02:53:21.350Z,99.90
2022-10-09T02:56:52.045Z,99.90
2022-10-09T03:00:23.145Z,98.90
2022-10-09T03:03:54.512Z,99.60
2022-10-09T03:07:25.580Z,98.90
2022-10-09T03:10:58.311Z,98.70
2022-10-09T03:14:29.691Z,99.90
2022-10-09T03:18:00.724Z,98.90
2022-10-09T03:21:43.904Z,99.10
2022-10-09T03:25:14.602Z,99.50
2022-10-09T03:28:46.816Z,99.00
2022-10-09T03:32:19.091Z,99.90
2022-10-09T03:35:40.976Z,99.90
2022-10-09T03:39:12.148Z,99.90
2022-10-09T03:42:43.386Z,99.90
2022-10-09T03:46:26.686Z,99.40
2022-10-09T03:49:57.563Z,99.90
2022-10-09T03:53:29.238Z,99.00
2022-10-09T03:57:00.169Z,99.30
2022-10-09T04:00:32.265Z,99.70
2022-10-09T04:03:54.182Z,99.90
2022-10-09T04:07:25.104Z,99.90
2022-10-09T04:10:56.371Z,99.90
2022-10-09T04:14:27.539Z,99.90
2022-10-09T04:17:58.791Z,99.90
2022-10-09T04:21:50.505Z,99.80
2022-10-09T04:25:21.515Z,99.90
2022-10-09T04:28:52.788Z,99.20
2022-10-09T04:32:24.596Z,99.70
2022-10-09T04:35:55.736Z,98.60
2022-10-09T04:39:26.469Z,99.10
2022-10-09T04:42:57.642Z,99.00
2022-10-09T04:46:39.932Z,98.70
2022-10-09T04:50:11.287Z,99.70
2022-10-09T04:53:42.829Z,99.90
2022-10-09T04:57:13.579Z,99.90
2022-10-09T05:00:44.376Z,99.40
2022-10-09T05:04:16.203Z,98.60
2022-10-09T05:07:47.023Z,98.50
2022-10-09T05:11:39.202Z,99.10
2022-10-09T05:15:12.761Z,98.10
2022-10-09T05:18:44.213Z,98.40
2022-10-09T05:22:14.940Z,97.70
2022-10-09T05:25:46.015Z,97.60
2022-10-09T05:29:17.765Z,98.30
2022-10-09T05:32:48.963Z,98.30
2022-10-09T05:36:41.274Z,98.60
2022-10-09T05:40:12.551Z,99.40
2022-10-09T05:43:55.976Z,97.40
2022-10-09T05:47:26.920Z,98.50
2022-10-09T05:50:58.287Z,98.50
2022-10-09T05:54:40.800Z,99.00
2022-10-09T05:58:11.888Z,98.80
2022-10-09T06:01:45.603Z,97.90
2022-10-09T06:05:16.623Z,99.40
2022-10-09T06:08:47.558Z,99.50
2022-10-09T06:12:18.898Z,98.80
2022-10-09T06:15:49.889Z,98.40
2022-10-09T06:19:23.386Z,95.90
2022-10-09T06:22:54.577Z,94.80
2022-10-09T06:26:38.413Z,96.50
2022-10-09T06:30:10.086Z,99.90
2022-10-09T06:33:42.193Z,92.70
2022-10-09T06:37:13.473Z,87.50
2022-10-09T06:40:45.392Z,90.20
2022-10-09T06:44:18.001Z,91.40
2022-10-09T06:47:49.134Z,99.90
2022-10-09T06:51:21.681Z,93.90
2022-10-09T06:54:53.383Z,94.00
2022-10-09T06:58:24.477Z,95.30
2022-10-09T07:01:55.538Z,98.20
2022-10-09T07:05:26.767Z,93.50
2022-10-09T07:09:01.238Z,92.60
2022-10-09T07:12:32.329Z,95.30
2022-10-09T07:16:04.968Z,92.20
2022-10-09T07:19:37.067Z,92.40
2022-10-09T07:23:09.919Z,91.60
2022-10-09T07:27:03.420Z,92.50
2022-10-09T07:30:47.528Z,93.20
2022-10-09T07:34:19.034Z,92.90
2022-10-09T07:37:50.070Z,91.80
2022-10-09T07:41:23.040Z,92.90
2022-10-09T07:44:54.472Z,91.60
2022-10-09T07:48:25.306Z,92.60
2022-10-09T07:52:07.561Z,91.30
2022-10-09T07:55:38.714Z,91.60
2022-10-09T07:59:12.190Z,91.10
2022-10-09T08:02:43.366Z,90.50
2022-10-09T08:06:30.814Z,90.80
2022-10-09T08:10:01.749Z,91.70
2022-10-09T08:13:38.792Z,90.10
2022-10-09T08:17:09.769Z,89.80
2022-10-09T08:20:41.647Z,89.10
2022-10-09T08:24:13.536Z,88.40
2022-10-09T08:27:44.771Z,90.80
2022-10-09T08:31:28.184Z,85.40
2022-10-09T08:34:59.480Z,84.50
2022-10-09T08:38:46.554Z,83.90
2022-10-09T08:42:25.661Z,83.50
2022-10-09T08:45:58.812Z,84.00
2022-10-09T08:49:43.924Z,82.30
2022-10-09T08:57:49.748Z,82.40
2022-10-09T09:10:43.352Z,75.60
2022-10-09T09:14:55.857Z,74.10
2022-10-09T09:37:45.433Z,76.70
2022-10-09T09:41:16.788Z,66.90
2022-10-09T09:44:40.710Z,74.10
2022-10-09T09:48:59.161Z,64.40
2022-10-09T09:52:30.621Z,69.60
2022-10-09T09:56:11.490Z,77.70
2022-10-09T10:49:48.930Z,81.70
2022-10-09T11:02:49.078Z,76.00
2022-10-09T11:06:25.533Z,80.10
2022-10-09T11:19:28.149Z,84.00
2022-10-09T11:32:11.287Z,85.00
2022-10-09T11:36:21.817Z,86.70
2022-10-09T11:40:25.710Z,89.10
2022-10-09T11:44:34.004Z,92.20
2022-10-09T12:03:57.537Z,99.90
2022-10-09T12:08:21.776Z,99.90
2022-10-09T12:12:11.851Z,99.90
2022-10-09T12:42:25.427Z,99.90
2022-10-09T12:46:41.969Z,99.80
2022-10-09T12:50:53.439Z,99.90
2022-10-09T12:54:26.782Z,99.90
2022-10-09T12:57:57.663Z,99.90
2022-10-09T13:01:33.105Z,99.90
2022-10-09T13:05:24.425Z,99.90
2022-10-09T13:24:40.098Z,99.90
2022-10-09T13:28:12.665Z,99.90
2022-10-09T13:31:45.572Z,99.90
2022-10-09T13:35:16.716Z,99.90
2022-10-09T13:38:50.224Z,99.70
2022-10-09T13:42:31.878Z,99.90
2022-10-09T13:46:04.542Z,99.90
2022-10-09T13:49:36.576Z,99.90
2022-10-09T13:53:07.501Z,99.90
2022-10-09T13:56:38.706Z,99.90
2022-10-09T14:00:11.018Z,99.90
2022-10-09T14:03:45.425Z,99.90
2022-10-09T14:07:22.566Z,99.90
2022-10-09T14:10:53.806Z,99.90
2022-10-09T14:14:25.365Z,99.90
2022-10-09T14:17:57.853Z,99.90
2022-10-09T14:21:35.008Z,99.90
2022-10-09T14:25:05.960Z,99.90
2022-10-09T14:28:46.779Z,99.90
2022-10-09T14:32:19.766Z,99.90
2022-10-09T14:36:41.810Z,99.90
2022-10-09T14:40:12.215Z,99.90
2022-10-09T14:43:43.155Z,99.90
2022-10-09T14:47:15.795Z,99.90
2022-10-09T14:50:46.856Z,99.90
2022-10-09T14:54:18.193Z,99.90
2022-10-09T14:57:49.301Z,99.90
2022-10-09T15:01:33.356Z,99.90
2022-10-09T15:05:04.432Z,99.90
2022-10-09T15:08:35.047Z,99.90
2022-10-09T15:12:06.703Z,99.90
2022-10-09T15:15:41.622Z,99.90
2022-10-09T15:19:14.578Z,99.90
2022-10-09T15:22:45.578Z,99.90
2022-10-09T15:26:17.475Z,99.90
2022-10-09T15:29:57.984Z,99.90
2022-10-09T15:33:29.441Z,99.90
2022-10-09T15:37:02.573Z,99.90
2022-10-09T15:40:34.646Z,99.90
2022-10-09T15:44:06.502Z,99.90
2022-10-09T15:47:50.513Z,99.90
2022-10-09T15:51:23.152Z,99.90
2022-10-09T15:54:54.344Z,99.90
2022-10-09T15:58:25.856Z,99.90
2022-10-09T16:01:57.465Z,99.90
2022-10-09T16:05:28.426Z,99.90
2022-10-09T16:08:59.770Z,99.90
2022-10-09T16:12:30.974Z,99.90
2022-10-09T16:16:02.323Z,99.90
2022-10-09T16:19:34.223Z,99.90
2022-10-09T16:23:04.930Z,99.90
2022-10-09T16:26:54.131Z,99.90
2022-10-09T16:30:25.088Z,99.90
2022-10-09T16:33:56.241Z,99.90
2022-10-09T16:37:27.129Z,99.90
2022-10-09T16:41:10.007Z,99.90
2022-10-09T16:44:41.404Z,99.90
2022-10-09T16:48:03.734Z,99.90
2022-10-09T16:51:28.326Z,99.90
2022-10-09T16:55:00.580Z,99.90
2022-10-09T16:58:22.949Z,99.90
2022-10-09T17:01:54.410Z,99.90
2022-10-09T17:05:25.513Z,99.90
2022-10-09T17:08:57.491Z,99.90
2022-10-09T17:12:29.282Z,99.90
2022-10-09T17:16:00.347Z,99.90
2022-10-09T17:19:32.076Z,99.90
2022-10-09T17:23:03.113Z,99.90
2022-10-09T17:26:45.783Z,99.90
2022-10-09T17:30:16.780Z,99.90
2022-10-09T17:33:47.902Z,99.90
2022-10-09T17:37:20.370Z,99.90
2022-10-09T17:40:55.160Z,99.90
2022-10-09T17:44:28.173Z,99.90
2022-10-09T17:47:59.076Z,99.90
2022-10-09T17:52:06.611Z,99.90
2022-10-09T17:55:37.595Z,99.90
2022-10-09T17:59:08.802Z,99.90
2022-10-09T18:02:39.887Z,99.90
2022-10-09T18:06:27.034Z,99.90
2022-10-09T18:09:59.640Z,99.90
2022-10-09T18:13:31.616Z,99.90
2022-10-09T18:17:06.139Z,99.90
2022-10-09T18:20:37.429Z,99.90
2022-10-09T18:24:08.638Z,99.90
2022-10-09T18:27:39.612Z,99.90
2022-10-09T18:31:22.960Z,99.90
2022-10-09T18:34:53.918Z,99.90
2022-10-09T18:38:25.563Z,99.90
2022-10-09T18:41:57.676Z,99.90
2022-10-09T18:45:28.977Z,99.90
2022-10-09T18:49:02.208Z,99.90
2022-10-09T18:52:36.626Z,99.90
2022-10-09T18:56:09.602Z,99.90
2022-10-09T18:59:44.700Z,99.90
2022-10-09T19:03:15.361Z,99.90
2022-10-09T19:06:46.465Z,99.90
2022-10-09T19:10:17.356Z,99.90
2022-10-09T19:13:48.539Z,99.90
2022-10-09T19:17:23.641Z,99.90
2022-10-09T19:20:56.809Z,99.90
2022-10-09T19:24:33.370Z,99.90
2022-10-09T19:28:05.352Z,99.90
2022-10-09T19:31:37.029Z,99.90
2022-10-09T19:34:59.070Z,99.90
2022-10-09T19:38:30.886Z,99.90
2022-10-09T19:42:01.935Z,99.90
2022-10-09T19:45:33.068Z,99.90
2022-10-09T19:49:04.096Z,99.90
2022-10-09T19:52:35.247Z,99.90
2022-10-09T19:56:09.214Z,99.90
2022-10-09T19:59:41.631Z,99.90
2022-10-09T20:03:12.748Z,99.90
2022-10-09T20:06:55.816Z,99.90
2022-10-09T20:10:26.699Z,99.90
2022-10-09T20:13:59.762Z,99.90
2022-10-09T20:17:30.833Z,99.90
2022-10-09T20:21:14.070Z,99.90
2022-10-09T20:24:44.907Z,99.90
2022-10-09T20:28:16.291Z,99.90
2022-10-09T20:31:51.180Z,99.90
2022-10-09T20:35:22.843Z,99.90
2022-10-09T20:38:54.300Z,99.90
2022-10-09T20:42:25.298Z,99.90
2022-10-09T20:49:57.667Z,99.90
2022-10-09T20:53:28.914Z,99.90
2022-10-09T20:57:01.000Z,99.90
